sensor_id;sensor_type;location;lat;lon;timestamp;temperature;humidity
72814;DHT22;60945;48.516;-2.768;2022-07-21T00:01:48;18.00;67.50
72814;DHT22;60945;48.516;-2.768;2022-07-21T00:04:13;18.00;67.70
72814;DHT22;60945;48.516;-2.768;2022-07-21T00:06:41;18.00;67.40
72814;DHT22;60945;48.516;-2.768;2022-07-21T00:09:08;18.00;67.40
72814;DHT22;60945;48.516;-2.768;2022-07-21T00:11:34;17.90;67.50
72814;DHT22;60945;48.516;-2.768;2022-07-21T00:14:00;17.90;67.40
72814;DHT22;60945;48.516;-2.768;2022-07-21T00:16:26;17.90;67.50
72814;DHT22;60945;48.516;-2.768;2022-07-21T00:18:51;17.80;67.90
72814;DHT22;60945;48.516;-2.768;2022-07-21T00:21:17;17.80;67.80
72814;DHT22;60945;48.516;-2.768;2022-07-21T00:23:42;17.80;67.70
72814;DHT22;60945;48.516;-2.768;2022-07-21T00:26:08;17.70;67.90
72814;DHT22;60945;48.516;-2.768;2022-07-21T00:28:34;17.70;67.90
72814;DHT22;60945;48.516;-2.768;2022-07-21T00:30:59;17.70;68.00
72814;DHT22;60945;48.516;-2.768;2022-07-21T00:33:25;17.70;67.80
72814;DHT22;60945;48.516;-2.768;2022-07-21T00:35:51;17.70;67.90
72814;DHT22;60945;48.516;-2.768;2022-07-21T00:38:16;17.60;67.90
72814;DHT22;60945;48.516;-2.768;2022-07-21T00:40:42;17.60;67.90
72814;DHT22;60945;48.516;-2.768;2022-07-21T00:43:08;17.60;68.10
72814;DHT22;60945;48.516;-2.768;2022-07-21T00:45:33;17.50;68.10
72814;DHT22;60945;48.516;-2.768;2022-07-21T00:47:59;17.50;68.20
72814;DHT22;60945;48.516;-2.768;2022-07-21T00:50:25;17.50;68.00
72814;DHT22;60945;48.516;-2.768;2022-07-21T00:52:50;17.50;68.20
72814;DHT22;60945;48.516;-2.768;2022-07-21T00:55:18;17.50;68.00
72814;DHT22;60945;48.516;-2.768;2022-07-21T00:57:45;17.40;68.10
72814;DHT22;60945;48.516;-2.768;2022-07-21T01:00:14;17.40;68.10
72814;DHT22;60945;48.516;-2.768;2022-07-21T01:02:40;17.40;68.20
72814;DHT22;60945;48.516;-2.768;2022-07-21T01:05:09;17.40;68.20
72814;DHT22;60945;48.516;-2.768;2022-07-21T01:07:39;17.40;68.20
72814;DHT22;60945;48.516;-2.768;2022-07-21T01:10:05;17.30;68.40
72814;DHT22;60945;48.516;-2.768;2022-07-21T01:12:31;17.30;68.40
72814;DHT22;60945;48.516;-2.768;2022-07-21T01:14:57;17.20;68.40
72814;DHT22;60945;48.516;-2.768;2022-07-21T01:17:23;17.30;68.50
72814;DHT22;60945;48.516;-2.768;2022-07-21T01:19:49;17.30;68.50
72814;DHT22;60945;48.516;-2.768;2022-07-21T01:22:15;17.20;68.70
72814;DHT22;60945;48.516;-2.768;2022-07-21T01:24:41;17.20;68.60
72814;DHT22;60945;48.516;-2.768;2022-07-21T01:27:07;17.10;69.10
72814;DHT22;60945;48.516;-2.768;2022-07-21T01:29:32;17.00;69.10
72814;DHT22;60945;48.516;-2.768;2022-07-21T01:31:58;17.10;69.10
72814;DHT22;60945;48.516;-2.768;2022-07-21T01:34:24;17.00;69.10
72814;DHT22;60945;48.516;-2.768;2022-07-21T01:36:49;17.00;69.10
72814;DHT22;60945;48.516;-2.768;2022-07-21T01:39:15;17.00;69.10
72814;DHT22;60945;48.516;-2.768;2022-07-21T01:41:59;16.90;69.30
72814;DHT22;60945;48.516;-2.768;2022-07-21T01:44:25;16.90;69.20
72814;DHT22;60945;48.516;-2.768;2022-07-21T01:46:51;16.90;69.40
72814;DHT22;60945;48.516;-2.768;2022-07-21T01:49:19;16.90;69.40
72814;DHT22;60945;48.516;-2.768;2022-07-21T01:51:45;16.90;69.10
72814;DHT22;60945;48.516;-2.768;2022-07-21T01:54:11;16.90;69.30
72814;DHT22;60945;48.516;-2.768;2022-07-21T01:56:38;16.90;69.10
72814;DHT22;60945;48.516;-2.768;2022-07-21T01:59:04;16.90;69.30
72814;DHT22;60945;48.516;-2.768;2022-07-21T02:01:31;16.90;69.00
72814;DHT22;60945;48.516;-2.768;2022-07-21T02:04:00;16.90;69.00
72814;DHT22;60945;48.516;-2.768;2022-07-21T02:06:27;16.90;69.20
72814;DHT22;60945;48.516;-2.768;2022-07-21T02:08:53;16.90;69.00
72814;DHT22;60945;48.516;-2.768;2022-07-21T02:11:19;16.90;69.10
72814;DHT22;60945;48.516;-2.768;2022-07-21T02:13:46;16.80;69.20
72814;DHT22;60945;48.516;-2.768;2022-07-21T02:16:12;16.80;69.20
72814;DHT22;60945;48.516;-2.768;2022-07-21T02:18:38;16.90;69.10
72814;DHT22;60945;48.516;-2.768;2022-07-21T02:21:05;16.80;69.30
72814;DHT22;60945;48.516;-2.768;2022-07-21T02:23:31;16.90;69.20
72814;DHT22;60945;48.516;-2.768;2022-07-21T02:25:57;16.90;69.00
72814;DHT22;60945;48.516;-2.768;2022-07-21T02:28:24;16.90;69.00
72814;DHT22;60945;48.516;-2.768;2022-07-21T02:30:50;16.90;69.10
72814;DHT22;60945;48.516;-2.768;2022-07-21T02:33:15;16.90;69.20
72814;DHT22;60945;48.516;-2.768;2022-07-21T02:35:41;16.90;69.20
72814;DHT22;60945;48.516;-2.768;2022-07-21T02:38:07;16.90;69.30
72814;DHT22;60945;48.516;-2.768;2022-07-21T02:40:33;16.90;69.30
72814;DHT22;60945;48.516;-2.768;2022-07-21T02:42:59;16.90;69.70
72814;DHT22;60945;48.516;-2.768;2022-07-21T02:45:25;17.00;69.30
72814;DHT22;60945;48.516;-2.768;2022-07-21T02:50:28;17.10;69.10
72814;DHT22;60945;48.516;-2.768;2022-07-21T02:52:55;17.10;69.30
72814;DHT22;60945;48.516;-2.768;2022-07-21T02:55:21;17.20;68.90
72814;DHT22;60945;48.516;-2.768;2022-07-21T02:57:47;17.20;68.80
72814;DHT22;60945;48.516;-2.768;2022-07-21T03:00:13;17.20;68.80
72814;DHT22;60945;48.516;-2.768;2022-07-21T03:02:39;17.30;68.30
72814;DHT22;60945;48.516;-2.768;2022-07-21T03:05:04;17.40;68.00
72814;DHT22;60945;48.516;-2.768;2022-07-21T03:07:30;17.40;68.00
72814;DHT22;60945;48.516;-2.768;2022-07-21T03:09:56;17.50;67.90
72814;DHT22;60945;48.516;-2.768;2022-07-21T03:12:22;17.50;67.80
72814;DHT22;60945;48.516;-2.768;2022-07-21T03:14:47;17.50;67.70
72814;DHT22;60945;48.516;-2.768;2022-07-21T03:17:13;17.50;67.70
72814;DHT22;60945;48.516;-2.768;2022-07-21T03:19:39;17.60;67.50
72814;DHT22;60945;48.516;-2.768;2022-07-21T03:22:04;17.50;67.80
72814;DHT22;60945;48.516;-2.768;2022-07-21T03:24:30;17.50;67.90
72814;DHT22;60945;48.516;-2.768;2022-07-21T03:26:56;17.60;67.70
72814;DHT22;60945;48.516;-2.768;2022-07-21T03:29:22;17.60;67.90
72814;DHT22;60945;48.516;-2.768;2022-07-21T03:31:48;17.60;67.70
72814;DHT22;60945;48.516;-2.768;2022-07-21T03:34:13;17.70;67.40
72814;DHT22;60945;48.516;-2.768;2022-07-21T03:36:39;17.80;67.20
72814;DHT22;60945;48.516;-2.768;2022-07-21T03:39:05;17.80;67.00
72814;DHT22;60945;48.516;-2.768;2022-07-21T03:41:30;17.90;66.90
72814;DHT22;60945;48.516;-2.768;2022-07-21T03:43:56;17.80;67.20
72814;DHT22;60945;48.516;-2.768;2022-07-21T03:46:22;17.80;67.20
72814;DHT22;60945;48.516;-2.768;2022-07-21T03:48:48;17.80;67.40
72814;DHT22;60945;48.516;-2.768;2022-07-21T03:51:14;17.80;67.50
72814;DHT22;60945;48.516;-2.768;2022-07-21T03:53:39;17.90;67.20
72814;DHT22;60945;48.516;-2.768;2022-07-21T03:56:05;17.90;66.90
72814;DHT22;60945;48.516;-2.768;2022-07-21T03:58:31;18.00;66.70
72814;DHT22;60945;48.516;-2.768;2022-07-21T04:00:56;18.00;66.60
72814;DHT22;60945;48.516;-2.768;2022-07-21T04:03:22;18.10;66.10
72814;DHT22;60945;48.516;-2.768;2022-07-21T04:05:48;18.00;66.70
72814;DHT22;60945;48.516;-2.768;2022-07-21T04:08:14;18.00;66.40
72814;DHT22;60945;48.516;-2.768;2022-07-21T04:10:42;18.00;66.40
72814;DHT22;60945;48.516;-2.768;2022-07-21T04:13:10;18.00;66.40
72814;DHT22;60945;48.516;-2.768;2022-07-21T04:15:36;18.00;66.40
72814;DHT22;60945;48.516;-2.768;2022-07-21T04:18:06;18.00;66.40
72814;DHT22;60945;48.516;-2.768;2022-07-21T04:20:32;18.10;66.30
72814;DHT22;60945;48.516;-2.768;2022-07-21T04:22:58;18.10;66.10
72814;DHT22;60945;48.516;-2.768;2022-07-21T04:25:24;18.20;66.00
72814;DHT22;60945;48.516;-2.768;2022-07-21T04:27:50;18.20;66.00
72814;DHT22;60945;48.516;-2.768;2022-07-21T04:30:18;18.20;65.90
72814;DHT22;60945;48.516;-2.768;2022-07-21T04:32:45;18.20;65.80
72814;DHT22;60945;48.516;-2.768;2022-07-21T04:35:11;18.20;65.90
72814;DHT22;60945;48.516;-2.768;2022-07-21T04:37:37;18.30;65.60
72814;DHT22;60945;48.516;-2.768;2022-07-21T04:40:05;18.30;65.60
72814;DHT22;60945;48.516;-2.768;2022-07-21T04:42:31;18.20;65.80
72814;DHT22;60945;48.516;-2.768;2022-07-21T04:44:56;18.20;65.80
72814;DHT22;60945;48.516;-2.768;2022-07-21T04:47:22;18.30;65.80
72814;DHT22;60945;48.516;-2.768;2022-07-21T04:49:48;18.30;65.70
72814;DHT22;60945;48.516;-2.768;2022-07-21T04:52:13;18.30;65.60
72814;DHT22;60945;48.516;-2.768;2022-07-21T04:54:39;18.40;65.40
72814;DHT22;60945;48.516;-2.768;2022-07-21T04:57:05;18.40;65.80
72814;DHT22;60945;48.516;-2.768;2022-07-21T04:59:32;18.30;65.80
72814;DHT22;60945;48.516;-2.768;2022-07-21T05:01:58;18.40;65.40
72814;DHT22;60945;48.516;-2.768;2022-07-21T05:04:25;18.50;65.20
72814;DHT22;60945;48.516;-2.768;2022-07-21T05:06:50;18.40;65.30
72814;DHT22;60945;48.516;-2.768;2022-07-21T05:09:16;18.40;65.50
72814;DHT22;60945;48.516;-2.768;2022-07-21T05:11:41;18.50;65.40
72814;DHT22;60945;48.516;-2.768;2022-07-21T05:14:07;18.50;65.40
72814;DHT22;60945;48.516;-2.768;2022-07-21T05:16:33;18.50;65.50
72814;DHT22;60945;48.516;-2.768;2022-07-21T05:18:58;18.50;65.40
72814;DHT22;60945;48.516;-2.768;2022-07-21T05:21:24;18.50;65.40
72814;DHT22;60945;48.516;-2.768;2022-07-21T05:23:50;18.50;65.50
72814;DHT22;60945;48.516;-2.768;2022-07-21T05:26:15;18.60;65.20
72814;DHT22;60945;48.516;-2.768;2022-07-21T05:28:41;18.70;65.10
72814;DHT22;60945;48.516;-2.768;2022-07-21T05:31:07;18.70;65.00
72814;DHT22;60945;48.516;-2.768;2022-07-21T05:33:34;18.70;65.20
72814;DHT22;60945;48.516;-2.768;2022-07-21T05:35:59;18.70;65.40
72814;DHT22;60945;48.516;-2.768;2022-07-21T05:38:25;18.70;65.40
72814;DHT22;60945;48.516;-2.768;2022-07-21T05:40:51;18.80;65.20
72814;DHT22;60945;48.516;-2.768;2022-07-21T05:43:16;18.80;65.00
72814;DHT22;60945;48.516;-2.768;2022-07-21T05:45:42;18.90;64.90
72814;DHT22;60945;48.516;-2.768;2022-07-21T05:48:08;18.90;64.80
72814;DHT22;60945;48.516;-2.768;2022-07-21T05:50:33;19.00;64.80
72814;DHT22;60945;48.516;-2.768;2022-07-21T05:52:59;19.10;64.60
72814;DHT22;60945;48.516;-2.768;2022-07-21T05:55:25;19.10;64.40
72814;DHT22;60945;48.516;-2.768;2022-07-21T05:57:50;19.20;64.30
72814;DHT22;60945;48.516;-2.768;2022-07-21T06:00:16;19.20;64.50
72814;DHT22;60945;48.516;-2.768;2022-07-21T06:02:45;19.20;64.50
72814;DHT22;60945;48.516;-2.768;2022-07-21T06:05:12;19.20;64.40
72814;DHT22;60945;48.516;-2.768;2022-07-21T06:07:39;19.30;64.30
72814;DHT22;60945;48.516;-2.768;2022-07-21T06:10:05;19.30;64.30
72814;DHT22;60945;48.516;-2.768;2022-07-21T06:12:32;19.30;64.60
72814;DHT22;60945;48.516;-2.768;2022-07-21T06:14:58;19.30;64.30
72814;DHT22;60945;48.516;-2.768;2022-07-21T06:17:24;19.40;64.20
72814;DHT22;60945;48.516;-2.768;2022-07-21T06:19:49;19.40;64.20
72814;DHT22;60945;48.516;-2.768;2022-07-21T06:22:15;19.50;63.80
72814;DHT22;60945;48.516;-2.768;2022-07-21T06:24:41;19.50;63.70
72814;DHT22;60945;48.516;-2.768;2022-07-21T06:27:06;19.50;64.20
72814;DHT22;60945;48.516;-2.768;2022-07-21T06:29:32;19.50;64.20
72814;DHT22;60945;48.516;-2.768;2022-07-21T06:31:58;19.50;64.20
72814;DHT22;60945;48.516;-2.768;2022-07-21T06:34:24;19.60;63.80
72814;DHT22;60945;48.516;-2.768;2022-07-21T06:36:49;19.70;63.70
72814;DHT22;60945;48.516;-2.768;2022-07-21T06:39:15;19.70;63.70
72814;DHT22;60945;48.516;-2.768;2022-07-21T06:41:41;19.70;63.50
72814;DHT22;60945;48.516;-2.768;2022-07-21T06:44:06;19.80;63.50
72814;DHT22;60945;48.516;-2.768;2022-07-21T06:46:33;19.80;63.40
72814;DHT22;60945;48.516;-2.768;2022-07-21T06:49:00;19.80;63.40
72814;DHT22;60945;48.516;-2.768;2022-07-21T06:51:26;19.80;63.10
72814;DHT22;60945;48.516;-2.768;2022-07-21T06:53:55;20.00;62.90
72814;DHT22;60945;48.516;-2.768;2022-07-21T06:56:21;20.10;62.70
72814;DHT22;60945;48.516;-2.768;2022-07-21T06:58:47;20.10;62.40
72814;DHT22;60945;48.516;-2.768;2022-07-21T07:01:14;20.20;61.90
72814;DHT22;60945;48.516;-2.768;2022-07-21T07:03:43;20.40;61.30
72814;DHT22;60945;48.516;-2.768;2022-07-21T07:06:09;20.50;60.70
72814;DHT22;60945;48.516;-2.768;2022-07-21T07:08:35;20.60;60.30
72814;DHT22;60945;48.516;-2.768;2022-07-21T07:11:04;20.60;60.20
72814;DHT22;60945;48.516;-2.768;2022-07-21T07:13:31;20.80;59.40
72814;DHT22;60945;48.516;-2.768;2022-07-21T07:15:57;20.80;58.00
72814;DHT22;60945;48.516;-2.768;2022-07-21T07:18:23;21.10;58.50
72814;DHT22;60945;48.516;-2.768;2022-07-21T07:20:49;21.10;58.00
72814;DHT22;60945;48.516;-2.768;2022-07-21T07:23:16;21.30;57.40
72814;DHT22;60945;48.516;-2.768;2022-07-21T07:25:41;21.40;57.10
72814;DHT22;60945;48.516;-2.768;2022-07-21T07:28:07;21.30;57.50
72814;DHT22;60945;48.516;-2.768;2022-07-21T07:30:34;21.20;57.80
72814;DHT22;60945;48.516;-2.768;2022-07-21T07:33:00;21.30;57.80
72814;DHT22;60945;48.516;-2.768;2022-07-21T07:35:26;21.50;56.90
72814;DHT22;60945;48.516;-2.768;2022-07-21T07:37:52;21.60;56.50
72814;DHT22;60945;48.516;-2.768;2022-07-21T07:40:20;21.80;56.10
72814;DHT22;60945;48.516;-2.768;2022-07-21T07:42:46;21.90;56.00
72814;DHT22;60945;48.516;-2.768;2022-07-21T07:45:12;22.00;55.70
72814;DHT22;60945;48.516;-2.768;2022-07-21T07:47:39;22.00;55.40
72814;DHT22;60945;48.516;-2.768;2022-07-21T07:50:06;22.10;55.10
72814;DHT22;60945;48.516;-2.768;2022-07-21T07:52:34;22.30;54.30
72814;DHT22;60945;48.516;-2.768;2022-07-21T07:55:00;22.30;54.00
72814;DHT22;60945;48.516;-2.768;2022-07-21T07:57:29;22.20;54.30
72814;DHT22;60945;48.516;-2.768;2022-07-21T07:59:54;22.10;54.50
72814;DHT22;60945;48.516;-2.768;2022-07-21T08:02:20;22.10;54.10
72814;DHT22;60945;48.516;-2.768;2022-07-21T08:04:46;22.00;54.80
72814;DHT22;60945;48.516;-2.768;2022-07-21T08:07:11;21.80;55.40
72814;DHT22;60945;48.516;-2.768;2022-07-21T08:09:39;21.90;55.00
72814;DHT22;60945;48.516;-2.768;2022-07-21T08:12:05;21.80;55.30
72814;DHT22;60945;48.516;-2.768;2022-07-21T08:14:31;22.00;54.60
72814;DHT22;60945;48.516;-2.768;2022-07-21T08:16:56;22.10;54.40
72814;DHT22;60945;48.516;-2.768;2022-07-21T08:19:24;22.20;53.70
72814;DHT22;60945;48.516;-2.768;2022-07-21T08:21:53;22.20;54.50
72814;DHT22;60945;48.516;-2.768;2022-07-21T08:24:19;22.40;53.90
72814;DHT22;60945;48.516;-2.768;2022-07-21T08:26:48;22.50;53.50
72814;DHT22;60945;48.516;-2.768;2022-07-21T08:29:14;22.60;53.20
72814;DHT22;60945;48.516;-2.768;2022-07-21T08:31:39;22.70;52.80
72814;DHT22;60945;48.516;-2.768;2022-07-21T08:34:05;22.50;53.10
72814;DHT22;60945;48.516;-2.768;2022-07-21T08:36:31;22.40;53.40
72814;DHT22;60945;48.516;-2.768;2022-07-21T08:38:57;22.50;52.90
72814;DHT22;60945;48.516;-2.768;2022-07-21T08:41:23;22.50;53.20
72814;DHT22;60945;48.516;-2.768;2022-07-21T08:43:50;22.30;53.40
72814;DHT22;60945;48.516;-2.768;2022-07-21T08:46:15;22.30;53.40
72814;DHT22;60945;48.516;-2.768;2022-07-21T08:48:42;22.40;52.90
72814;DHT22;60945;48.516;-2.768;2022-07-21T08:51:08;22.40;52.60
72814;DHT22;60945;48.516;-2.768;2022-07-21T08:53:34;22.20;53.20
72814;DHT22;60945;48.516;-2.768;2022-07-21T08:55:59;22.20;53.00
72814;DHT22;60945;48.516;-2.768;2022-07-21T08:58:25;22.00;53.50
72814;DHT22;60945;48.516;-2.768;2022-07-21T09:00:51;21.90;54.10
72814;DHT22;60945;48.516;-2.768;2022-07-21T09:03:24;22.00;54.00
72814;DHT22;60945;48.516;-2.768;2022-07-21T09:06:18;22.10;53.80
72814;DHT22;60945;48.516;-2.768;2022-07-21T09:08:46;22.30;53.20
72814;DHT22;60945;48.516;-2.768;2022-07-21T09:11:23;22.30;53.40
72814;DHT22;60945;48.516;-2.768;2022-07-21T09:14:07;22.20;53.80
72814;DHT22;60945;48.516;-2.768;2022-07-21T09:16:41;22.20;54.20
72814;DHT22;60945;48.516;-2.768;2022-07-21T09:19:17;21.40;56.30
72814;DHT22;60945;48.516;-2.768;2022-07-21T09:21:43;21.60;55.30
72814;DHT22;60945;48.516;-2.768;2022-07-21T09:24:14;21.80;54.80
72814;DHT22;60945;48.516;-2.768;2022-07-21T09:29:24;22.00;54.00
72814;DHT22;60945;48.516;-2.768;2022-07-21T09:31:50;21.90;54.30
72814;DHT22;60945;48.516;-2.768;2022-07-21T09:34:16;21.70;55.10
72814;DHT22;60945;48.516;-2.768;2022-07-21T09:36:57;21.60;55.30
72814;DHT22;60945;48.516;-2.768;2022-07-21T09:39:44;21.70;54.70
72814;DHT22;60945;48.516;-2.768;2022-07-21T09:42:14;21.80;54.40
72814;DHT22;60945;48.516;-2.768;2022-07-21T09:44:53;21.80;54.70
72814;DHT22;60945;48.516;-2.768;2022-07-21T09:47:21;21.80;54.10
72814;DHT22;60945;48.516;-2.768;2022-07-21T09:49:47;21.90;54.30
72814;DHT22;60945;48.516;-2.768;2022-07-21T09:52:21;21.80;54.20
72814;DHT22;60945;48.516;-2.768;2022-07-21T09:54:47;21.90;53.40
72814;DHT22;60945;48.516;-2.768;2022-07-21T09:57:15;22.10;53.20
72814;DHT22;60945;48.516;-2.768;2022-07-21T09:59:43;22.10;53.40
72814;DHT22;60945;48.516;-2.768;2022-07-21T10:02:30;22.10;53.50
72814;DHT22;60945;48.516;-2.768;2022-07-21T10:05:12;22.10;52.90
72814;DHT22;60945;48.516;-2.768;2022-07-21T10:07:45;22.10;53.00
72814;DHT22;60945;48.516;-2.768;2022-07-21T10:10:12;22.10;53.20
72814;DHT22;60945;48.516;-2.768;2022-07-21T10:12:38;22.00;53.50
72814;DHT22;60945;48.516;-2.768;2022-07-21T10:15:04;22.00;53.70
72814;DHT22;60945;48.516;-2.768;2022-07-21T10:17:30;22.00;53.50
72814;DHT22;60945;48.516;-2.768;2022-07-21T10:20:29;22.20;52.90
72814;DHT22;60945;48.516;-2.768;2022-07-21T10:23:22;22.30;53.00
72814;DHT22;60945;48.516;-2.768;2022-07-21T10:25:52;22.40;53.10
72814;DHT22;60945;48.516;-2.768;2022-07-21T10:28:22;22.40;53.00
72814;DHT22;60945;48.516;-2.768;2022-07-21T10:31:16;22.50;53.30
72814;DHT22;60945;48.516;-2.768;2022-07-21T10:41:42;22.00;54.70
72814;DHT22;60945;48.516;-2.768;2022-07-21T10:47:17;22.10;54.80
72814;DHT22;60945;48.516;-2.768;2022-07-21T10:49:56;22.10;53.80
72814;DHT22;60945;48.516;-2.768;2022-07-21T10:57:36;22.40;53.80
72814;DHT22;60945;48.516;-2.768;2022-07-21T11:03:32;22.60;53.10
72814;DHT22;60945;48.516;-2.768;2022-07-21T11:08:47;22.50;53.10
72814;DHT22;60945;48.516;-2.768;2022-07-21T11:11:20;22.60;53.50
72814;DHT22;60945;48.516;-2.768;2022-07-21T11:24:31;22.90;52.50
72814;DHT22;60945;48.516;-2.768;2022-07-21T11:27:18;23.10;52.10
72814;DHT22;60945;48.516;-2.768;2022-07-21T11:29:46;23.00;51.80
72814;DHT22;60945;48.516;-2.768;2022-07-21T11:32:13;23.10;51.60
72814;DHT22;60945;48.516;-2.768;2022-07-21T11:34:40;23.20;51.40
72814;DHT22;60945;48.516;-2.768;2022-07-21T11:37:07;23.30;50.70
72814;DHT22;60945;48.516;-2.768;2022-07-21T11:39:33;23.10;51.40
72814;DHT22;60945;48.516;-2.768;2022-07-21T11:42:17;23.30;50.90
72814;DHT22;60945;48.516;-2.768;2022-07-21T11:44:43;23.40;50.20
72814;DHT22;60945;48.516;-2.768;2022-07-21T11:47:14;23.50;50.60
72814;DHT22;60945;48.516;-2.768;2022-07-21T11:49:41;23.80;49.70
72814;DHT22;60945;48.516;-2.768;2022-07-21T11:52:13;24.00;49.60
72814;DHT22;60945;48.516;-2.768;2022-07-21T11:57:07;23.80;50.20
72814;DHT22;60945;48.516;-2.768;2022-07-21T11:59:34;24.00;49.90
72814;DHT22;60945;48.516;-2.768;2022-07-21T12:04:41;24.20;49.60
72814;DHT22;60945;48.516;-2.768;2022-07-21T12:09:37;24.40;49.20
72814;DHT22;60945;48.516;-2.768;2022-07-21T12:12:03;24.30;49.20
72814;DHT22;60945;48.516;-2.768;2022-07-21T12:14:46;24.10;49.90
72814;DHT22;60945;48.516;-2.768;2022-07-21T12:17:13;23.90;50.10
72814;DHT22;60945;48.516;-2.768;2022-07-21T12:19:39;23.80;50.70
72814;DHT22;60945;48.516;-2.768;2022-07-21T12:22:05;23.70;51.00
72814;DHT22;60945;48.516;-2.768;2022-07-21T12:24:52;23.60;51.50
72814;DHT22;60945;48.516;-2.768;2022-07-21T12:27:20;23.40;52.10
72814;DHT22;60945;48.516;-2.768;2022-07-21T12:29:47;23.20;52.90
72814;DHT22;60945;48.516;-2.768;2022-07-21T12:32:14;23.10;53.20
72814;DHT22;60945;48.516;-2.768;2022-07-21T12:34:52;23.30;52.90
72814;DHT22;60945;48.516;-2.768;2022-07-21T12:37:20;23.30;52.70
72814;DHT22;60945;48.516;-2.768;2022-07-21T12:40:03;23.20;53.20
72814;DHT22;60945;48.516;-2.768;2022-07-21T12:42:34;23.40;53.00
72814;DHT22;60945;48.516;-2.768;2022-07-21T12:45:12;23.20;53.40
72814;DHT22;60945;48.516;-2.768;2022-07-21T12:47:39;23.30;53.30
72814;DHT22;60945;48.516;-2.768;2022-07-21T12:50:13;23.20;53.70
72814;DHT22;60945;48.516;-2.768;2022-07-21T12:52:46;23.10;54.00
72814;DHT22;60945;48.516;-2.768;2022-07-21T12:55:13;23.00;54.20
72814;DHT22;60945;48.516;-2.768;2022-07-21T12:57:38;23.00;54.10
72814;DHT22;60945;48.516;-2.768;2022-07-21T13:00:04;23.30;53.70
72814;DHT22;60945;48.516;-2.768;2022-07-21T13:02:45;23.40;53.50
72814;DHT22;60945;48.516;-2.768;2022-07-21T13:05:11;23.40;53.60
72814;DHT22;60945;48.516;-2.768;2022-07-21T13:07:37;23.50;53.30
72814;DHT22;60945;48.516;-2.768;2022-07-21T13:10:03;23.80;52.60
72814;DHT22;60945;48.516;-2.768;2022-07-21T13:12:29;23.90;51.90
72814;DHT22;60945;48.516;-2.768;2022-07-21T13:14:54;24.10;51.40
72814;DHT22;60945;48.516;-2.768;2022-07-21T13:17:20;24.40;50.70
72814;DHT22;60945;48.516;-2.768;2022-07-21T13:19:45;24.60;50.20
72814;DHT22;60945;48.516;-2.768;2022-07-21T13:22:11;24.70;49.80
72814;DHT22;60945;48.516;-2.768;2022-07-21T13:24:37;24.70;49.30
72814;DHT22;60945;48.516;-2.768;2022-07-21T13:27:02;24.90;48.70
72814;DHT22;60945;48.516;-2.768;2022-07-21T13:29:28;25.00;48.40
72814;DHT22;60945;48.516;-2.768;2022-07-21T13:31:54;25.20;48.20
72814;DHT22;60945;48.516;-2.768;2022-07-21T13:34:19;25.00;48.60
72814;DHT22;60945;48.516;-2.768;2022-07-21T13:36:45;25.30;47.90
72814;DHT22;60945;48.516;-2.768;2022-07-21T13:39:10;25.50;47.40
72814;DHT22;60945;48.516;-2.768;2022-07-21T13:41:36;25.50;47.40
72814;DHT22;60945;48.516;-2.768;2022-07-21T13:44:03;25.60;47.40
72814;DHT22;60945;48.516;-2.768;2022-07-21T13:46:29;25.60;47.30
72814;DHT22;60945;48.516;-2.768;2022-07-21T13:48:54;25.60;47.30
72814;DHT22;60945;48.516;-2.768;2022-07-21T13:51:21;25.50;47.60
72814;DHT22;60945;48.516;-2.768;2022-07-21T13:53:49;25.50;47.80
72814;DHT22;60945;48.516;-2.768;2022-07-21T13:56:15;25.70;47.30
72814;DHT22;60945;48.516;-2.768;2022-07-21T13:58:41;25.80;46.60
72814;DHT22;60945;48.516;-2.768;2022-07-21T14:01:08;26.00;45.90
72814;DHT22;60945;48.516;-2.768;2022-07-21T14:03:37;26.10;45.20
72814;DHT22;60945;48.516;-2.768;2022-07-21T14:06:03;29.60;40.10
72814;DHT22;60945;48.516;-2.768;2022-07-21T14:08:29;31.90;36.60
72814;DHT22;60945;48.516;-2.768;2022-07-21T14:10:54;35.90;31.50
72814;DHT22;60945;48.516;-2.768;2022-07-21T14:13:20;38.70;28.60
72814;DHT22;60945;48.516;-2.768;2022-07-21T14:15:46;41.20;26.40
72814;DHT22;60945;48.516;-2.768;2022-07-21T14:18:11;43.40;24.40
72814;DHT22;60945;48.516;-2.768;2022-07-21T14:20:38;44.40;23.30
72814;DHT22;60945;48.516;-2.768;2022-07-21T14:23:04;44.10;23.20
72814;DHT22;60945;48.516;-2.768;2022-07-21T14:25:29;44.90;22.60
72814;DHT22;60945;48.516;-2.768;2022-07-21T14:27:56;46.10;21.40
72814;DHT22;60945;48.516;-2.768;2022-07-21T14:30:25;46.70;21.10
72814;DHT22;60945;48.516;-2.768;2022-07-21T14:32:50;47.00;20.80
72814;DHT22;60945;48.516;-2.768;2022-07-21T14:35:17;46.80;20.80
72814;DHT22;60945;48.516;-2.768;2022-07-21T14:37:46;46.10;21.20
72814;DHT22;60945;48.516;-2.768;2022-07-21T14:40:13;46.50;20.80
72814;DHT22;60945;48.516;-2.768;2022-07-21T14:42:39;44.00;22.30
72814;DHT22;60945;48.516;-2.768;2022-07-21T14:45:06;42.50;23.30
72814;DHT22;60945;48.516;-2.768;2022-07-21T14:47:32;39.90;25.10
72814;DHT22;60945;48.516;-2.768;2022-07-21T14:49:57;38.00;27.00
72814;DHT22;60945;48.516;-2.768;2022-07-21T14:52:26;35.40;29.70
72814;DHT22;60945;48.516;-2.768;2022-07-21T14:54:52;34.10;31.60
72814;DHT22;60945;48.516;-2.768;2022-07-21T14:57:18;32.70;33.50
72814;DHT22;60945;48.516;-2.768;2022-07-21T14:59:43;32.00;34.70
72814;DHT22;60945;48.516;-2.768;2022-07-21T15:02:09;30.70;36.70
72814;DHT22;60945;48.516;-2.768;2022-07-21T15:04:35;29.70;38.40
72814;DHT22;60945;48.516;-2.768;2022-07-21T15:07:00;28.90;39.80
72814;DHT22;60945;48.516;-2.768;2022-07-21T15:09:26;29.30;39.20
72814;DHT22;60945;48.516;-2.768;2022-07-21T15:11:52;29.40;39.00
72814;DHT22;60945;48.516;-2.768;2022-07-21T15:14:17;29.10;39.50
72814;DHT22;60945;48.516;-2.768;2022-07-21T15:16:43;28.70;40.30
72814;DHT22;60945;48.516;-2.768;2022-07-21T15:19:09;28.10;41.40
72814;DHT22;60945;48.516;-2.768;2022-07-21T15:21:35;27.40;42.60
72814;DHT22;60945;48.516;-2.768;2022-07-21T15:24:00;27.20;43.00
72814;DHT22;60945;48.516;-2.768;2022-07-21T15:26:26;26.60;44.40
72814;DHT22;60945;48.516;-2.768;2022-07-21T15:28:52;26.20;45.30
72814;DHT22;60945;48.516;-2.768;2022-07-21T15:31:21;25.80;46.30
72814;DHT22;60945;48.516;-2.768;2022-07-21T15:33:46;25.60;46.80
72814;DHT22;60945;48.516;-2.768;2022-07-21T15:36:12;25.40;47.20
72814;DHT22;60945;48.516;-2.768;2022-07-21T15:38:37;25.60;46.90
72814;DHT22;60945;48.516;-2.768;2022-07-21T15:41:03;25.50;47.10
72814;DHT22;60945;48.516;-2.768;2022-07-21T15:43:30;25.60;47.10
72814;DHT22;60945;48.516;-2.768;2022-07-21T15:45:56;25.60;46.90
72814;DHT22;60945;48.516;-2.768;2022-07-21T15:48:21;25.00;48.40
72814;DHT22;60945;48.516;-2.768;2022-07-21T15:50:47;24.80;48.80
72814;DHT22;60945;48.516;-2.768;2022-07-21T15:53:13;24.80;48.80
72814;DHT22;60945;48.516;-2.768;2022-07-21T15:55:39;24.80;48.90
72814;DHT22;60945;48.516;-2.768;2022-07-21T15:58:05;24.70;49.30
72814;DHT22;60945;48.516;-2.768;2022-07-21T16:00:30;24.60;49.50
72814;DHT22;60945;48.516;-2.768;2022-07-21T16:02:56;24.40;50.00